Hahnville, Louisiana
Current Conditions -  °F | °C
As of 12:53 PM on Thursday 23 Oct 2014 (Local Time) from KMSY Reporting Station
Few Clouds Few Clouds  
Wind Chill: 72°   Ceiling: Unl
Heat Index: 72°   Visibility: 10mi
Dew Point: 47°   Wind: 13mph
Humidity: 41%   Direction: 50°NE
Pressure: 30.08"   Gusts: NA
Location:  29.98°N, 90.41°W
Report Text: KMSY 231753Z 05011KT 10SM FEW150 FEW250 22/08 A3008 RMK AO2 SLP188 T02220083 10222 20161 58015
Loading
Personal Weather Stations






























Interactive Weather Map
Tropical Storm Tracking
New forecast layout! Learn more

10-Day Weather Forecast

Advertisements
Track Severe Weather on mobile